createdAt,value
2018-09-25T00:02:03.223Z,99190.09
2018-09-25T00:04:36.191Z,99191.69
2018-09-25T00:07:09.303Z,99190.91
2018-09-25T00:09:42.384Z,99191.97
2018-09-25T00:12:15.465Z,99196.05
2018-09-25T00:14:48.565Z,99197.39
2018-09-25T00:17:21.642Z,99194.45
2018-09-25T00:19:54.758Z,99194.16
2018-09-25T00:22:27.789Z,99191.75
2018-09-25T00:25:01.458Z,99194.16
2018-09-25T00:27:34.467Z,99198.48
2018-09-25T00:30:07.620Z,99203.59
2018-09-25T00:32:40.725Z,99205.50
2018-09-25T00:35:13.772Z,99208.73
2018-09-25T00:37:46.880Z,99206.85
2018-09-25T00:40:20.121Z,99209.83
2018-09-25T00:42:53.306Z,99207.91
2018-09-25T00:45:26.415Z,99210.08
2018-09-25T00:47:59.543Z,99214.68
2018-09-25T00:50:32.595Z,99206.34
2018-09-25T00:53:05.625Z,99209.30
2018-09-25T00:55:38.435Z,99206.59
2018-09-25T00:58:11.610Z,99208.23
2018-09-25T01:00:44.814Z,99213.33
2018-09-25T01:03:17.868Z,99203.41
2018-09-25T01:05:50.937Z,99143.31
2018-09-25T01:08:24.040Z,99202.05
2018-09-25T01:10:57.157Z,99199.64
2018-09-25T01:13:30.050Z,99205.56
2018-09-25T01:16:03.012Z,99205.81
2018-09-25T01:18:36.223Z,99204.22
2018-09-25T01:21:09.342Z,99199.36
2018-09-25T01:23:42.464Z,99208.26
2018-09-25T01:26:15.549Z,99201.52
2018-09-25T01:28:48.688Z,99205.31
2018-09-25T01:31:21.675Z,99210.70
2018-09-25T01:33:54.774Z,99212.86
2018-09-25T01:36:27.794Z,99208.81
2018-09-25T01:39:00.853Z,99209.63
2018-09-25T01:41:33.925Z,99209.91
2018-09-25T01:44:06.774Z,99215.30
2018-09-25T01:46:39.904Z,99212.07
2018-09-25T01:49:12.926Z,99217.43
2018-09-25T01:51:45.921Z,99210.97
2018-09-25T01:54:18.958Z,99213.42
2018-09-25T01:56:51.945Z,99218.55
2018-09-25T01:59:24.750Z,99217.45
2018-09-25T02:01:57.856Z,99219.11
2018-09-25T02:04:31.030Z,99219.89
2018-09-25T02:07:04.224Z,99224.50
2018-09-25T02:09:37.151Z,99222.84
2018-09-25T02:12:10.321Z,99225.53
2018-09-25T02:14:43.178Z,99229.56
2018-09-25T02:17:16.302Z,99236.05
2018-09-25T02:19:49.493Z,99235.27
2018-09-25T02:22:22.488Z,99233.61
2018-09-25T02:24:55.437Z,99238.74
2018-09-25T02:27:28.592Z,99240.90
2018-09-25T02:30:01.739Z,99235.80
2018-09-25T02:32:34.885Z,99241.46
2018-09-25T02:35:07.945Z,99250.61
2018-09-25T02:37:41.107Z,99243.34
2018-09-25T02:40:14.278Z,99245.78
2018-09-25T02:42:47.413Z,99248.73
2018-09-25T02:45:20.544Z,99253.05
2018-09-25T02:47:53.562Z,99252.79
2018-09-25T02:50:26.700Z,99261.65
2018-09-25T02:52:59.799Z,99258.95
2018-09-25T02:55:32.870Z,99260.30
2018-09-25T02:58:05.898Z,99260.58
2018-09-25T03:00:38.981Z,99267.88
2018-09-25T03:03:12.191Z,99267.88
2018-09-25T03:05:45.300Z,99257.97
2018-09-25T03:08:18.491Z,99262.20
2018-09-25T03:10:51.672Z,99259.27
2018-09-25T03:13:24.744Z,99262.77
2018-09-25T03:15:57.737Z,99260.36
2018-09-25T03:18:30.681Z,99270.03
2018-09-25T03:21:03.623Z,99273.26
2018-09-25T03:23:36.784Z,99268.43
2018-09-25T03:26:09.763Z,99275.16
2018-09-25T03:28:42.854Z,99277.84
2018-09-25T03:31:15.976Z,99276.79
2018-09-25T03:33:49.146Z,99278.66
2018-09-25T03:36:22.156Z,99280.02
2018-09-25T03:38:55.226Z,99278.41
2018-09-25T03:41:28.309Z,99287.84
2018-09-25T03:44:01.402Z,99282.20
2018-09-25T03:46:34.501Z,99280.84
2018-09-25T03:49:07.722Z,99287.58
2018-09-25T03:51:40.812Z,99285.17
2018-09-25T03:54:13.915Z,99283.53
2018-09-25T03:56:46.953Z,99284.35
2018-09-25T03:59:19.921Z,99292.17
2018-09-25T04:01:52.800Z,99284.37
2018-09-25T04:04:25.997Z,99289.20
2018-09-25T04:06:58.912Z,99288.94
2018-09-25T04:09:31.987Z,99286.25
2018-09-25T04:12:05.079Z,99299.97
2018-09-25T04:14:38.111Z,99299.17
2018-09-25T04:17:11.185Z,99302.15
2018-09-25T04:19:44.233Z,99302.68
2018-09-25T04:22:17.234Z,99309.41
2018-09-25T04:24:50.098Z,99305.91
2018-09-25T04:27:23.255Z,99306.47
2018-09-25T04:29:56.389Z,99310.78
2018-09-25T04:32:29.475Z,99318.30
2018-09-25T04:35:02.579Z,99325.02
2018-09-25T04:37:35.768Z,99322.61
2018-09-25T04:40:08.965Z,99328.28
2018-09-25T04:42:41.976Z,99319.91
2018-09-25T04:45:14.952Z,99329.63
2018-09-25T04:47:48.112Z,99325.30
2018-09-25T04:50:21.188Z,99330.70
2018-09-25T04:52:54.301Z,99336.09
2018-09-25T04:55:27.313Z,99330.98
2018-09-25T04:58:00.492Z,99337.70
2018-09-25T05:00:33.632Z,99339.87
2018-09-25T05:03:06.649Z,99336.36
2018-09-25T05:05:39.616Z,99332.33
2018-09-25T05:08:12.516Z,99337.98
2018-09-25T05:10:45.504Z,99336.63
2018-09-25T05:13:18.498Z,99335.82
2018-09-25T05:15:51.520Z,99334.22
2018-09-25T05:18:24.714Z,99335.03
2018-09-25T05:20:57.710Z,99340.95
2018-09-25T05:23:30.882Z,99341.77
2018-09-25T05:26:03.812Z,99345.24
2018-09-25T05:28:37.014Z,99341.77
2018-09-25T05:31:10.060Z,99347.67
2018-09-25T05:33:43.146Z,99353.06
2018-09-25T05:36:16.141Z,99357.09
2018-09-25T05:38:49.338Z,99359.53
2018-09-25T05:41:22.423Z,99360.06
2018-09-25T05:43:55.342Z,99359.81
2018-09-25T05:46:28.364Z,99360.61
2018-09-25T05:49:01.498Z,99366.25
2018-09-25T05:51:34.390Z,99362.22
2018-09-25T05:54:07.508Z,99375.14
2018-09-25T05:56:40.661Z,99378.36
2018-09-25T05:59:13.786Z,99382.96
2018-09-25T06:01:46.922Z,99384.31
2018-09-25T06:04:19.954Z,99385.91
2018-09-25T06:06:53.103Z,99388.05
2018-09-25T06:09:26.368Z,99388.05
2018-09-25T06:11:59.262Z,99386.71
2018-09-25T06:14:32.378Z,99390.77
2018-09-25T06:17:05.242Z,99389.14
2018-09-25T06:19:38.209Z,99399.64
2018-09-25T06:22:11.310Z,99396.95
2018-09-25T06:24:44.501Z,99399.89
2018-09-25T06:27:17.389Z,99409.05
2018-09-25T06:29:50.595Z,99415.50
2018-09-25T06:32:23.679Z,99412.80
2018-09-25T06:34:56.597Z,99414.72
2018-09-25T06:37:29.551Z,99416.33
2018-09-25T06:40:02.492Z,99417.94
2018-09-25T06:42:35.510Z,99420.38
2018-09-25T06:45:08.520Z,99416.86
2018-09-25T06:47:41.681Z,99421.72
2018-09-25T06:50:14.543Z,99428.16
2018-09-25T06:52:47.550Z,99430.06
2018-09-25T06:55:20.571Z,99433.02
2018-09-25T06:57:53.356Z,99433.54
2018-09-25T07:00:26.422Z,99441.34
2018-09-25T07:02:59.480Z,99445.13
2018-09-25T07:05:32.486Z,99447.81
2018-09-25T07:08:05.480Z,99459.11
2018-09-25T07:10:38.485Z,99455.08
2018-09-25T07:13:11.530Z,99458.03
2018-09-25T07:15:44.530Z,99462.36
2018-09-25T07:18:17.398Z,99470.70
2018-09-25T07:20:50.600Z,99473.66
2018-09-25T07:23:23.681Z,99482.55
2018-09-25T07:25:56.706Z,99489.01
2018-09-25T07:28:29.759Z,99482.55
2018-09-25T07:31:02.830Z,99504.07
2018-09-25T07:33:35.882Z,99502.72
2018-09-25T07:36:08.959Z,99511.62
2018-09-25T07:38:42.254Z,99504.89
2018-09-25T07:41:15.485Z,99502.20
2018-09-25T07:43:48.564Z,99512.95
2018-09-25T07:46:22.046Z,99516.45
2018-09-25T07:48:55.212Z,99508.11
2018-09-25T07:51:28.585Z,99511.33
2018-09-25T07:54:01.772Z,99521.30
2018-09-25T07:56:35.007Z,99523.17
2018-09-25T07:59:08.004Z,99521.02
2018-09-25T08:01:41.301Z,99532.33
2018-09-25T08:04:14.262Z,99521.56
2018-09-25T08:06:47.305Z,99519.40
2018-09-25T08:09:20.137Z,99525.87
2018-09-25T08:11:53.262Z,99519.67
2018-09-25T08:14:26.417Z,99518.06
2018-09-25T08:16:59.560Z,99516.19
2018-09-25T08:19:32.942Z,99513.74
2018-09-25T08:22:06.069Z,99519.95
2018-09-25T08:24:39.242Z,99520.47
2018-09-25T08:27:12.657Z,99517.52
2018-09-25T08:29:45.822Z,99521.84
2018-09-25T08:32:18.884Z,99482.28
2018-09-25T08:34:52.067Z,99520.74
2018-09-25T08:37:25.019Z,99521.02
2018-09-25T08:39:57.966Z,99521.58
2018-09-25T08:42:31.171Z,99523.19
2018-09-25T08:45:04.235Z,99523.71
2018-09-25T08:47:37.436Z,99526.69
2018-09-25T08:50:10.592Z,99523.44
2018-09-25T08:52:43.886Z,99528.02
2018-09-25T08:55:17.036Z,99525.34
2018-09-25T08:57:50.170Z,99530.72
2018-09-25T09:00:23.402Z,99525.33
2018-09-25T09:02:56.694Z,99527.20
2018-09-25T09:05:30.191Z,99528.84
2018-09-25T09:08:03.603Z,99538.80
2018-09-25T09:10:36.829Z,99532.06
2018-09-25T09:13:10.067Z,99526.15
2018-09-25T09:15:43.593Z,99526.42
2018-09-25T09:18:16.802Z,99516.98
2018-09-25T09:20:50.058Z,99515.91
2018-09-25T09:23:22.975Z,99518.08
2018-09-25T09:25:55.901Z,99520.48
2018-09-25T09:28:29.149Z,99521.31
2018-09-25T09:31:02.245Z,99521.56
2018-09-25T09:33:34.975Z,99515.66
2018-09-25T09:36:07.903Z,99510.27
2018-09-25T09:38:40.802Z,99508.64
2018-09-25T09:41:13.681Z,99508.11
2018-09-25T09:43:46.759Z,99512.96
2018-09-25T09:46:19.823Z,99511.62
2018-09-25T09:48:52.601Z,99508.64
2018-09-25T09:51:25.619Z,99507.29
2018-09-25T09:53:58.624Z,99505.41
2018-09-25T09:56:31.804Z,99509.18
2018-09-25T09:59:04.684Z,99508.92
2018-09-25T10:01:37.789Z,99510.00
2018-09-25T10:04:10.724Z,99506.48
2018-09-25T10:06:43.783Z,99506.75
2018-09-25T10:09:16.855Z,99511.33
2018-09-25T10:11:49.949Z,99505.97
2018-09-25T10:14:22.974Z,99507.55
2018-09-25T10:16:55.750Z,99511.32
2018-09-25T10:19:28.801Z,99509.70
2018-09-25T10:22:01.688Z,99506.23
2018-09-25T10:24:34.686Z,99505.66
2018-09-25T10:27:07.645Z,99505.66
2018-09-25T10:29:40.433Z,99502.17
2018-09-25T10:32:13.548Z,99511.06
2018-09-25T10:34:46.322Z,99508.91
2018-09-25T10:37:19.181Z,99504.61
2018-09-25T10:39:52.106Z,99508.38
2018-09-25T10:42:24.993Z,99501.36
2018-09-25T10:44:58.138Z,99506.48
2018-09-25T10:47:31.106Z,99507.30
2018-09-25T10:50:04.185Z,99513.77
2018-09-25T10:52:37.037Z,99502.17
2018-09-25T10:55:10.082Z,99498.39
2018-09-25T10:57:43.041Z,99501.91
2018-09-25T11:00:16.146Z,99500.56
2018-09-25T11:02:49.125Z,99500.56
2018-09-25T11:05:22.026Z,99494.08
2018-09-25T11:07:55.168Z,99494.64
2018-09-25T11:10:27.969Z,99501.10
2018-09-25T11:13:00.877Z,99500.55
2018-09-25T11:15:33.946Z,99499.20
2018-09-25T11:18:07.105Z,99496.52
2018-09-25T11:20:40.114Z,99497.58
2018-09-25T11:23:13.218Z,99494.36
2018-09-25T11:25:46.025Z,99488.70
2018-09-25T11:28:18.853Z,99497.59
2018-09-25T11:30:51.686Z,99491.92
2018-09-25T11:33:24.601Z,99481.44
2018-09-25T11:35:57.565Z,99491.91
2018-09-25T11:38:30.485Z,99487.59
2018-09-25T11:41:03.572Z,99487.88
2018-09-25T11:43:36.697Z,99482.77
2018-09-25T11:46:09.891Z,99478.98
2018-09-25T11:48:43.042Z,99479.24
2018-09-25T11:51:16.183Z,99477.64
2018-09-25T11:53:49.329Z,99480.08
2018-09-25T11:56:22.515Z,99481.15
2018-09-25T11:58:55.581Z,99477.37
2018-09-25T12:01:28.726Z,99468.20
2018-09-25T12:04:01.862Z,99466.06
2018-09-25T12:06:35.011Z,99464.70
2018-09-25T12:09:07.923Z,99459.31
2018-09-25T12:11:40.852Z,99459.84
2018-09-25T12:14:13.841Z,99456.38
2018-09-25T12:16:46.916Z,99453.39
2018-09-25T12:19:20.085Z,99455.30
2018-09-25T12:21:53.266Z,99448.30
2018-09-25T12:24:26.317Z,99447.47
2018-09-25T12:26:59.390Z,99445.59
2018-09-25T12:29:32.564Z,99442.63
2018-09-25T12:32:05.557Z,99438.30
2018-09-25T12:34:38.450Z,99449.64
2018-09-25T12:37:11.736Z,99447.75
2018-09-25T12:39:44.882Z,99445.59
2018-09-25T12:42:18.048Z,99438.58
2018-09-25T12:44:51.022Z,99434.83
2018-09-25T12:47:24.092Z,99432.92
2018-09-25T12:49:57.180Z,99434.28
2018-09-25T12:52:30.273Z,99432.94
2018-09-25T12:55:03.156Z,99431.84
2018-09-25T12:57:36.297Z,99432.38
2018-09-25T13:00:09.201Z,99428.62
2018-09-25T13:02:42.226Z,99425.11
2018-09-25T13:05:15.264Z,99428.34
2018-09-25T13:07:48.287Z,99429.97
2018-09-25T13:10:21.416Z,99424.84
2018-09-25T13:12:54.368Z,99426.98
2018-09-25T13:15:27.456Z,99421.87
2018-09-25T13:18:00.424Z,99431.83
2018-09-25T13:20:33.480Z,99423.74
2018-09-25T13:23:06.567Z,99426.19
2018-09-25T13:25:39.589Z,99425.63
2018-09-25T13:28:12.665Z,99429.42
2018-09-25T13:30:45.608Z,99429.67
2018-09-25T13:33:18.740Z,99425.38
2018-09-25T13:35:51.737Z,99422.70
2018-09-25T13:38:24.846Z,99422.70
2018-09-25T13:40:57.883Z,99426.99
2018-09-25T13:43:30.942Z,99425.11
2018-09-25T13:46:04.028Z,99422.42
2018-09-25T13:48:37.102Z,99425.11
2018-09-25T13:51:10.079Z,99420.55
2018-09-25T13:53:42.859Z,99413.81
2018-09-25T13:56:15.794Z,99415.16
2018-09-25T13:58:48.724Z,99411.38
2018-09-25T14:01:21.626Z,99409.48
2018-09-25T14:03:54.700Z,99404.38
2018-09-25T14:06:27.682Z,99406.28
2018-09-25T14:09:00.807Z,99414.62
2018-09-25T14:11:33.763Z,99410.55
2018-09-25T14:14:06.806Z,99400.59
2018-09-25T14:16:39.848Z,99395.75
2018-09-25T14:19:12.974Z,99404.36
2018-09-25T14:21:45.783Z,99408.13
2018-09-25T14:24:18.649Z,99399.51
2018-09-25T14:26:51.613Z,99398.16
2018-09-25T14:29:24.608Z,99398.44
2018-09-25T14:31:57.554Z,99405.17
2018-09-25T14:34:30.688Z,99401.14
2018-09-25T14:37:03.753Z,99410.57
2018-09-25T14:39:36.697Z,99406.24
2018-09-25T14:42:09.746Z,99403.84
2018-09-25T14:44:42.830Z,99409.75
2018-09-25T14:47:15.688Z,99407.59
2018-09-25T14:49:48.747Z,99408.13
2018-09-25T14:52:21.553Z,99402.20
2018-09-25T14:54:54.579Z,99404.62
2018-09-25T14:57:27.370Z,99401.14
2018-09-25T15:00:00.252Z,99405.19
2018-09-25T15:02:33.313Z,99399.52
2018-09-25T15:05:06.413Z,99390.63
2018-09-25T15:07:39.410Z,99393.59
2018-09-25T15:10:12.347Z,99400.58
2018-09-25T15:12:45.333Z,99391.72
2018-09-25T15:15:18.444Z,99390.37
2018-09-25T15:17:51.298Z,99388.46
2018-09-25T15:20:24.213Z,99387.66
2018-09-25T15:22:57.052Z,99390.08
2018-09-25T15:25:29.908Z,99382.81
2018-09-25T15:28:02.734Z,99388.18
2018-09-25T15:30:35.654Z,99392.51
2018-09-25T15:33:08.661Z,99394.66
2018-09-25T15:35:41.550Z,99396.01
2018-09-25T15:38:14.549Z,99396.54
2018-09-25T15:40:47.436Z,99392.77
2018-09-25T15:43:20.338Z,99384.16
2018-09-25T15:45:53.553Z,99391.44
2018-09-25T15:48:26.405Z,99389.02
2018-09-25T15:50:59.230Z,99394.66
2018-09-25T15:53:32.174Z,99387.67
2018-09-25T15:56:05.214Z,99400.05
2018-09-25T15:58:38.138Z,99402.21
2018-09-25T16:01:10.973Z,99413.52
2018-09-25T16:03:43.889Z,99404.09
2018-09-25T16:06:16.988Z,99407.88
2018-09-25T16:08:49.841Z,99415.68
2018-09-25T16:11:22.917Z,99410.03
2018-09-25T16:13:56.013Z,99400.88
2018-09-25T16:16:29.102Z,99391.70
2018-09-25T16:19:02.240Z,99383.90
2018-09-25T16:21:35.721Z,99393.07
2018-09-25T16:24:08.671Z,99395.23
2018-09-25T16:26:41.667Z,99392.81
2018-09-25T16:29:15.376Z,99390.91
2018-09-25T16:31:48.341Z,99392.81
2018-09-25T16:34:21.474Z,99397.63
2018-09-25T16:36:54.358Z,99398.98
2018-09-25T16:39:27.812Z,99400.06
2018-09-25T16:42:00.804Z,99403.82
2018-09-25T16:44:33.977Z,99405.17
2018-09-25T16:47:07.108Z,99406.00
2018-09-25T16:49:40.205Z,99417.30
2018-09-25T16:52:13.355Z,99412.46
2018-09-25T16:54:46.437Z,99410.83
2018-09-25T16:57:19.505Z,99417.84
2018-09-25T16:59:52.545Z,99419.47
2018-09-25T17:02:25.517Z,99428.09
2018-09-25T17:04:58.577Z,99431.59
2018-09-25T17:07:31.512Z,99431.58
2018-09-25T17:10:04.496Z,99436.98
2018-09-25T17:12:37.398Z,99443.45
2018-09-25T17:15:10.425Z,99440.21
2018-09-25T17:17:43.333Z,99441.27
2018-09-25T17:20:16.439Z,99427.81
2018-09-25T17:22:49.245Z,99420.02
2018-09-25T17:25:22.252Z,99414.34
2018-09-25T17:27:55.054Z,99418.15
2018-09-25T17:30:28.198Z,99421.90
2018-09-25T17:33:01.161Z,99419.77
2018-09-25T17:35:34.298Z,99422.98
2018-09-25T17:38:07.383Z,99425.16
2018-09-25T17:40:40.549Z,99425.69
2018-09-25T17:43:13.643Z,99421.92
2018-09-25T17:45:46.633Z,99423.55
2018-09-25T17:48:19.591Z,99431.33
2018-09-25T17:50:52.706Z,99428.64
2018-09-25T17:53:25.824Z,99442.40
2018-09-25T17:55:58.899Z,99445.09
2018-09-25T17:58:31.796Z,99437.27
2018-09-25T18:01:04.760Z,99430.54
2018-09-25T18:03:37.809Z,99438.62
2018-09-25T18:06:10.730Z,99432.98
2018-09-25T18:08:43.754Z,99438.36
2018-09-25T18:11:16.639Z,99436.20
2018-09-25T18:13:49.467Z,99438.09
2018-09-25T18:16:22.563Z,99439.98
2018-09-25T18:18:55.581Z,99442.95
2018-09-25T18:21:28.736Z,99444.30
2018-09-25T18:24:01.860Z,99445.91
2018-09-25T18:26:34.928Z,99444.30
2018-09-25T18:29:08.018Z,99448.08
2018-09-25T18:31:41.113Z,99451.55
2018-09-25T18:34:14.038Z,99454.80
2018-09-25T18:36:47.296Z,99452.91
2018-09-25T18:39:20.322Z,99465.84
2018-09-25T18:41:53.441Z,99473.10
2018-09-25T18:44:26.505Z,99475.27
2018-09-25T18:46:59.583Z,99477.40
2018-09-25T18:49:32.774Z,99483.08
2018-09-25T18:52:05.639Z,99484.40
2018-09-25T18:54:38.674Z,99483.33
2018-09-25T18:57:11.800Z,99486.29
2018-09-25T18:59:45.794Z,99489.80
2018-09-25T19:02:18.928Z,99495.19
2018-09-25T19:04:52.154Z,99492.75
2018-09-25T19:07:25.288Z,99498.15
2018-09-25T19:09:58.455Z,99498.69
2018-09-25T19:12:31.573Z,99502.17
2018-09-25T19:15:04.730Z,99508.92
2018-09-25T19:17:37.895Z,99498.69
2018-09-25T19:20:11.040Z,99498.13
2018-09-25T19:22:44.149Z,99505.69
2018-09-25T19:25:17.074Z,99503.00
2018-09-25T19:27:56.412Z,99507.03
2018-09-25T19:30:29.165Z,99502.44
2018-09-25T19:33:02.268Z,99503.80
2018-09-25T19:35:35.326Z,99503.27
2018-09-25T19:38:08.184Z,99499.50
2018-09-25T19:40:41.258Z,99499.22
2018-09-25T19:43:14.334Z,99497.61
2018-09-25T19:45:47.474Z,99496.00
2018-09-25T19:48:20.590Z,99487.12
2018-09-25T19:50:53.648Z,99494.10
2018-09-25T19:53:26.785Z,99490.89
2018-09-25T19:55:59.853Z,99489.82
2018-09-25T19:58:32.721Z,99493.59
2018-09-25T20:01:05.621Z,99504.06
2018-09-25T20:03:38.605Z,99504.63
2018-09-25T20:06:11.702Z,99512.14
2018-09-25T20:08:44.791Z,99506.23
2018-09-25T20:11:17.875Z,99510.26
2018-09-25T20:13:50.991Z,99514.58
2018-09-25T20:16:23.838Z,99507.30
2018-09-25T20:18:56.793Z,99507.30
2018-09-25T20:21:29.637Z,99509.98
2018-09-25T20:24:02.578Z,99512.97
2018-09-25T20:26:35.629Z,99518.06
2018-09-25T20:29:08.577Z,99527.48
2018-09-25T20:31:41.521Z,99535.30
2018-09-25T20:34:14.530Z,99535.30
2018-09-25T20:36:47.701Z,99538.52
2018-09-25T20:39:20.880Z,99551.45
2018-09-25T20:41:54.053Z,99550.37
2018-09-25T20:44:27.146Z,99552.79
2018-09-25T20:47:00.309Z,99547.95
2018-09-25T20:49:33.165Z,99544.73
2018-09-25T20:52:06.258Z,99545.25
2018-09-25T20:54:39.241Z,99547.95
2018-09-25T20:57:12.356Z,99536.39
2018-09-25T20:59:45.433Z,99537.19
2018-09-25T21:02:18.581Z,99539.06
2018-09-25T21:04:51.730Z,99537.72
2018-09-25T21:07:24.823Z,99527.78
2018-09-25T21:09:57.906Z,99521.31
2018-09-25T21:12:30.915Z,99515.41
2018-09-25T21:15:03.785Z,99511.08
2018-09-25T21:17:36.872Z,99498.44
2018-09-25T21:20:10.005Z,99505.70
2018-09-25T21:22:43.090Z,99497.63
2018-09-25T21:25:16.208Z,99488.47
2018-09-25T21:27:49.286Z,99482.56
2018-09-25T21:30:22.386Z,99478.27
2018-09-25T21:32:55.513Z,99479.59
2018-09-25T21:35:28.426Z,99480.16
2018-09-25T21:38:01.474Z,99487.39
2018-09-25T21:40:34.585Z,99477.17
2018-09-25T21:43:07.645Z,99480.16
2018-09-25T21:45:40.744Z,99481.77
2018-09-25T21:48:13.669Z,99486.33
2018-09-25T21:50:46.874Z,99494.14
2018-09-25T21:53:19.957Z,99486.33
2018-09-25T21:55:53.081Z,99483.09
2018-09-25T21:58:26.234Z,99488.47
2018-09-25T22:00:59.414Z,99491.71
2018-09-25T22:03:32.467Z,99485.78
2018-09-25T22:06:05.561Z,99487.67
2018-09-25T22:08:38.673Z,99493.06
2018-09-25T22:11:11.521Z,99492.78
2018-09-25T22:13:44.501Z,99497.63
2018-09-25T22:16:17.545Z,99497.37
2018-09-25T22:18:50.642Z,99495.21
2018-09-25T22:21:23.730Z,99492.27
2018-09-25T22:23:56.922Z,99489.30
2018-09-25T22:26:29.990Z,99479.08
2018-09-25T22:29:03.119Z,99478.81
2018-09-25T22:31:36.244Z,99475.30
2018-09-25T22:34:09.326Z,99475.05
2018-09-25T22:36:42.505Z,99470.72
2018-09-25T22:39:15.638Z,99471.53
2018-09-25T22:41:48.714Z,99468.03
2018-09-25T22:44:22.085Z,99465.34
2018-09-25T22:46:55.202Z,99464.53
2018-09-25T22:49:28.392Z,99462.13
2018-09-25T22:52:01.469Z,99460.78
2018-09-25T22:54:34.552Z,99452.69
2018-09-25T22:57:07.543Z,99451.64
2018-09-25T22:59:40.608Z,99451.64
2018-09-25T23:02:13.612Z,99442.19
2018-09-25T23:04:46.716Z,99445.16
2018-09-25T23:07:19.729Z,99439.25
2018-09-25T23:09:52.714Z,99444.11
2018-09-25T23:12:25.643Z,99445.16
2018-09-25T23:14:58.638Z,99446.51
2018-09-25T23:17:31.641Z,99443.81
2018-09-25T23:20:04.817Z,99435.48
2018-09-25T23:22:37.885Z,99437.65
2018-09-25T23:25:11.011Z,99439.78
2018-09-25T23:27:43.894Z,99437.65
2018-09-25T23:30:17.021Z,99424.73
2018-09-25T23:32:50.146Z,99416.11
2018-09-25T23:35:23.249Z,99408.33
2018-09-25T23:37:56.386Z,99403.48
2018-09-25T23:40:29.570Z,99396.75
2018-09-25T23:43:01.486Z,99409.09
2018-09-25T23:47:43.393Z,99417.73
2018-09-25T23:50:30.417Z,99420.13
2018-09-25T23:53:05.541Z,99426.06
2018-09-25T23:55:40.425Z,99421.73
2018-09-25T23:58:13.393Z,99423.09
